Terminal Aerodrome Forecast
Issued by NWS

Home | Current Version | Previous Version | Text Only | Print | Product List | Glossary On
Versions: 1 2 3 4 5 6 7 8 9 10 11 12 13 14 15 16 17 18 19 20 21 22 23 24 25 26 27 28 29 30 31 32 33 34 35
329
FTUS43 KPAH 211120
TAFOWB
TAF
KOWB 211120Z 2112/2212 29005KT P6SM SCT008 OVC015
      TEMPO 2112/2115 BKN008
     FM211500 34008KT P6SM VCSH SCT015 OVC025
     FM212300 34004KT P6SM BKN030
     FM220400 34003KT P6SM SCT030
     FM220700 35002KT P6SM SKC=

USA.gov is the U.S. government's official web portal to all federal, state and local government web resources and services.